Time;durP1;ratioP1;P1;durP2;ratioP2;P2;SDS_P1;SDS_P2;PMS_P1;PMS_P2;Temp;Humidity;BMP_temperature;BMP_pressure;BME280_temperature;BME280_humidity;BME280_pressure;Samples;Min_cycle;Max_cycle;Signal;HPM_P1;HPM_P2
2024/01/11 00:00:17;;;;;;;68.75;37.42;;;-3.10;99.90;;;;;;5054112;28;20067;-64
2024/01/11 00:02:43;;;;;;;72.68;40.92;;;-3.20;99.90;;;;;;5072004;28;20039;-65
2024/01/11 00:05:09;;;;;;;58.00;30.70;;;-3.00;99.90;;;;;;5048150;28;20094;-64
2024/01/11 00:07:35;;;;;;;74.72;42.28;;;-3.20;99.90;;;;;;5044262;28;20140;-65
2024/01/11 00:10:02;;;;;;;68.70;38.55;;;-2.90;99.90;;;;;;5053525;28;20632;-65
2024/01/11 00:12:28;;;;;;;68.68;37.22;;;-3.10;99.90;;;;;;5042768;28;20612;-65
2024/01/11 00:14:54;;;;;;;73.80;42.80;;;-2.90;99.90;;;;;;5054220;28;20054;-64
2024/01/11 00:17:19;;;;;;;68.35;38.40;;;-3.00;99.90;;;;;;5071359;28;20312;-65
2024/01/11 00:19:45;;;;;;;65.35;38.42;;;-3.10;99.90;;;;;;5036660;28;20474;-66
2024/01/11 00:22:11;;;;;;;65.05;37.92;;;-3.10;99.90;;;;;;5047652;28;20466;-65
2024/01/11 00:24:37;;;;;;;67.88;38.13;;;-2.90;99.90;;;;;;5070682;28;20332;-64
2024/01/11 00:27:03;;;;;;;71.35;40.45;;;-3.00;99.90;;;;;;5054333;28;20040;-65
2024/01/11 00:29:29;;;;;;;74.53;43.22;;;-2.80;99.90;;;;;;5037275;28;20040;-65
2024/01/11 00:31:55;;;;;;;73.45;42.22;;;-3.00;99.90;;;;;;5055250;28;20457;-64
2024/01/11 00:34:21;;;;;;;73.72;41.88;;;-3.00;99.90;;;;;;5070942;28;20078;-65
2024/01/11 00:36:47;;;;;;;79.03;43.85;;;-3.00;99.90;;;;;;5075038;28;20071;-65
2024/01/11 00:39:13;;;;;;;83.15;46.10;;;-3.00;99.90;;;;;;5069694;28;20048;-65
2024/01/11 00:41:39;;;;;;;89.25;48.22;;;-3.10;99.90;;;;;;5053496;28;20036;-65
2024/01/11 00:44:05;;;;;;;81.65;45.38;;;-3.10;99.90;;;;;;5070348;28;20202;-65
2024/01/11 00:46:32;;;;;;;75.32;40.42;;;-3.10;99.90;;;;;;5054830;28;20051;-64
2024/01/11 00:48:58;;;;;;;89.82;49.10;;;-3.10;99.90;;;;;;5053328;28;20036;-66
2024/01/11 00:51:23;;;;;;;80.30;44.03;;;-3.10;99.90;;;;;;5036702;28;20248;-65
2024/01/11 00:53:49;;;;;;;79.10;41.83;;;-2.90;99.90;;;;;;5053450;28;20213;-65
2024/01/11 00:56:19;;;;;;;72.30;38.20;;;-2.90;99.90;;;;;;5036845;28;21409;-64
2024/01/11 00:58:45;;;;;;;71.25;35.28;;;-2.90;99.90;;;;;;5040279;28;20135;-64
2024/01/11 01:01:11;;;;;;;82.75;42.65;;;-2.80;99.90;;;;;;5070353;28;20078;-65
2024/01/11 01:03:37;;;;;;;67.78;34.20;;;-2.90;99.90;;;;;;5070691;28;20559;-64
2024/01/11 01:06:04;;;;;;;89.88;45.72;;;-2.80;99.90;;;;;;5053678;28;20384;-64
2024/01/11 01:08:29;;;;;;;93.18;47.92;;;-2.90;99.90;;;;;;5070264;28;20059;-64
2024/01/11 01:10:55;;;;;;;84.20;44.72;;;-3.00;99.90;;;;;;5053238;28;20040;-65
2024/01/11 01:13:21;;;;;;;83.03;44.97;;;-3.00;99.90;;;;;;5069950;28;20035;-64
2024/01/11 01:15:47;;;;;;;89.82;49.03;;;-2.90;99.90;;;;;;5053708;28;20315;-65
2024/01/11 01:18:13;;;;;;;79.47;39.28;;;-2.90;99.90;;;;;;5053503;28;20032;-66
2024/01/11 01:20:38;;;;;;;77.13;42.70;;;-2.90;99.90;;;;;;5070062;28;20043;-63
2024/01/11 01:23:04;;;;;;;92.78;47.85;;;-2.70;99.90;;;;;;5053707;28;20375;-64
2024/01/11 01:25:30;;;;;;;78.53;44.58;;;-2.60;99.90;;;;;;5069664;28;20039;-65
2024/01/11 01:27:56;;;;;;;74.28;42.20;;;-2.60;99.90;;;;;;5070696;28;20453;-65
2024/01/11 01:30:23;;;;;;;73.85;43.10;;;-2.90;99.90;;;;;;5054297;28;20655;-65
2024/01/11 01:32:49;;;;;;;64.10;38.20;;;-2.80;99.90;;;;;;5036517;28;20135;-65
2024/01/11 01:35:14;;;;;;;62.95;37.75;;;-2.80;99.90;;;;;;5053566;28;20097;-65
2024/01/11 01:37:40;;;;;;;62.05;37.40;;;-3.00;99.90;;;;;;5052707;28;20085;-66
2024/01/11 01:40:07;;;;;;;64.97;38.08;;;-3.00;99.90;;;;;;5053603;28;20153;-65
2024/01/11 01:42:33;;;;;;;59.97;36.25;;;-3.00;99.90;;;;;;5053111;28;20044;-65
2024/01/11 01:44:59;;;;;;;51.17;31.67;;;-3.00;99.90;;;;;;5037495;28;20135;-65
2024/01/11 01:47:27;;;;;;;54.00;31.95;;;-3.00;99.90;;;;;;5053500;28;20370;-66
2024/01/11 01:49:53;;;;;;;52.20;33.10;;;-2.80;99.90;;;;;;5039402;28;20043;-65
2024/01/11 01:52:19;;;;;;;53.92;33.03;;;-2.70;99.90;;;;;;5059156;28;20066;-65
2024/01/11 01:54:47;;;;;;;55.45;34.55;;;-2.60;99.90;;;;;;5074220;28;20324;-66
2024/01/11 01:57:13;;;;;;;56.88;34.88;;;-2.50;99.90;;;;;;5074057;28;20050;-64
2024/01/11 01:59:40;;;;;;;55.45;34.97;;;-2.60;99.90;;;;;;5073989;28;20062;-64
2024/01/11 02:02:07;;;;;;;47.58;30.90;;;-2.50;99.90;;;;;;5073678;28;20085;-64
2024/01/11 02:04:33;;;;;;;48.50;31.80;;;-2.60;99.90;;;;;;5039471;28;20046;-65
2024/01/11 02:06:59;;;;;;;54.42;33.05;;;-2.70;99.90;;;;;;5057066;28;20036;-65
2024/01/11 02:09:25;;;;;;;51.47;32.33;;;-2.70;99.90;;;;;;5040066;28;20062;-66
2024/01/11 02:11:53;;;;;;;51.78;32.42;;;-2.80;99.90;;;;;;5022678;28;20036;-65
2024/01/11 02:14:19;;;;;;;51.03;33.30;;;-3.00;99.90;;;;;;5041006;28;20663;-65
2024/01/11 02:16:46;;;;;;;45.33;29.10;;;-3.10;99.90;;;;;;5073415;28;20129;-65
2024/01/11 02:19:13;;;;;;;47.22;30.50;;;-3.10;99.90;;;;;;5073420;28;20067;-65
2024/01/11 02:21:42;;;;;;;49.97;30.98;;;-3.30;99.90;;;;;;5073473;28;20162;-65
2024/01/11 02:24:08;;;;;;;49.72;31.65;;;-3.30;99.90;;;;;;5073416;28;20531;-65
2024/01/11 02:26:34;;;;;;;44.95;29.63;;;-3.20;99.90;;;;;;5055769;28;20055;-65
2024/01/11 02:29:00;;;;;;;48.25;31.30;;;-3.30;99.90;;;;;;5074136;28;20122;-65
2024/01/11 02:31:26;;;;;;;51.38;32.28;;;-3.30;99.90;;;;;;5056485;28;20122;-64
2024/01/11 02:33:53;;;;;;;53.33;32.55;;;-3.30;99.90;;;;;;5043524;28;20143;-66
2024/01/11 02:36:21;;;;;;;52.40;32.50;;;-3.30;99.90;;;;;;5073553;28;20323;-65
2024/01/11 02:38:47;;;;;;;52.45;32.10;;;-3.20;99.90;;;;;;5073451;28;20047;-65
2024/01/11 02:41:16;;;;;;;50.60;32.75;;;-3.30;99.90;;;;;;5056826;28;20270;-65
2024/01/11 02:43:47;;;;;;;50.10;32.25;;;-3.20;99.90;;;;;;5056422;28;20309;-65
2024/01/11 02:46:15;;;;;;;51.35;31.23;;;-3.20;99.90;;;;;;5072236;28;20036;-65
2024/01/11 02:48:41;;;;;;;53.80;33.20;;;-3.20;99.90;;;;;;5047694;28;21554;-65
2024/01/11 02:51:06;;;;;;;54.33;33.85;;;-2.90;99.90;;;;;;5072308;28;20189;-64
2024/01/11 02:53:34;;;;;;;54.53;33.42;;;-2.90;99.90;;;;;;5072530;28;20083;-65
2024/01/11 02:56:01;;;;;;;53.58;32.60;;;-2.80;99.90;;;;;;5039803;28;20748;-66
2024/01/11 02:58:26;;;;;;;56.70;35.90;;;-2.50;99.90;;;;;;5056382;28;20094;-65
2024/01/11 03:00:52;;;;;;;56.55;35.58;;;-2.40;99.90;;;;;;5055874;28;20035;-65
2024/01/11 03:03:18;;;;;;;57.38;35.85;;;-2.20;99.90;;;;;;5038786;28;20658;-65
2024/01/11 03:05:44;;;;;;;54.83;34.55;;;-2.30;99.90;;;;;;5072443;28;20039;-64
2024/01/11 03:08:10;;;;;;;58.05;36.33;;;-2.10;99.90;;;;;;5036989;28;20595;-67
2024/01/11 03:10:40;;;;;;;54.25;34.50;;;-2.10;99.90;;;;;;5051956;28;20054;-65
2024/01/11 03:13:07;;;;;;;57.38;35.55;;;-2.10;99.90;;;;;;5050592;28;20082;-66
2024/01/11 03:15:33;;;;;;;57.88;35.97;;;-1.90;99.90;;;;;;5050941;28;20530;-66
2024/01/11 03:17:59;;;;;;;58.42;34.78;;;-1.80;99.90;;;;;;5050680;28;20044;-65
2024/01/11 03:20:25;;;;;;;58.85;35.70;;;-2.00;99.90;;;;;;5051135;28;20108;-65
2024/01/11 03:22:52;;;;;;;57.75;36.15;;;-2.10;99.90;;;;;;5050961;28;20104;-66
2024/01/11 03:25:18;;;;;;;56.90;35.50;;;-2.10;99.90;;;;;;5034511;28;20449;-65
2024/01/11 03:27:45;;;;;;;59.80;35.05;;;-2.30;99.90;;;;;;5017029;28;20124;-66
2024/01/11 03:30:12;;;;;;;60.17;36.95;;;-2.30;99.90;;;;;;5032545;28;20629;-65
2024/01/11 03:32:38;;;;;;;58.53;35.92;;;-2.20;99.90;;;;;;5034252;28;20044;-65
2024/01/11 03:35:07;;;;;;;60.60;36.58;;;-2.10;99.90;;;;;;5034545;28;20127;-65
2024/01/11 03:37:32;;;;;;;56.45;35.15;;;-2.10;99.90;;;;;;5051241;28;20052;-64
2024/01/11 03:39:59;;;;;;;61.38;37.67;;;-2.10;99.90;;;;;;5034326;28;20041;-66
2024/01/11 03:42:25;;;;;;;61.95;37.20;;;-2.10;99.90;;;;;;5050266;28;20060;-64
2024/01/11 03:44:51;;;;;;;63.35;38.55;;;-2.30;99.90;;;;;;5033987;28;20163;-65
2024/01/11 03:47:17;;;;;;;62.95;37.90;;;-2.10;99.90;;;;;;5016471;28;20632;-64
2024/01/11 03:49:42;;;;;;;64.57;38.10;;;-2.30;99.90;;;;;;5033890;28;20330;-66
2024/01/11 03:52:11;;;;;;;58.63;35.83;;;-2.20;99.90;;;;;;5049871;28;20255;-66
2024/01/11 03:54:36;;;;;;;63.15;38.38;;;-2.10;99.90;;;;;;5050019;28;20045;-66
2024/01/11 03:57:02;;;;;;;60.70;36.83;;;-2.30;99.90;;;;;;5049872;28;20376;-66
2024/01/11 03:59:28;;;;;;;66.15;38.67;;;-2.20;99.90;;;;;;5033586;28;20112;-66
2024/01/11 04:01:56;;;;;;;63.13;38.40;;;-2.20;99.90;;;;;;5050729;28;20338;-66
2024/01/11 04:04:22;;;;;;;62.60;38.88;;;-2.20;99.90;;;;;;5033681;28;20051;-66
2024/01/11 04:06:48;;;;;;;66.60;38.92;;;-2.20;99.90;;;;;;5019782;28;20484;-66
2024/01/11 04:09:14;;;;;;;62.00;38.50;;;-2.20;99.90;;;;;;5013649;28;1193390;-66
2024/01/11 04:11:40;;;;;;;61.33;36.92;;;-2.00;99.90;;;;;;5074326;28;20055;-65
2024/01/11 04:14:06;;;;;;;62.55;38.03;;;-2.10;99.90;;;;;;5057054;28;20122;-66
2024/01/11 04:16:32;;;;;;;64.68;39.47;;;-2.20;99.90;;;;;;5056616;28;20489;-64
2024/01/11 04:18:58;;;;;;;62.42;39.05;;;-2.20;99.90;;;;;;5057640;28;20039;-65
2024/01/11 04:21:28;;;;;;;66.00;39.50;;;-2.20;99.90;;;;;;5057847;28;20453;-66
2024/01/11 04:23:54;;;;;;;66.53;40.00;;;-2.00;99.90;;;;;;5059000;28;20473;-67
2024/01/11 04:26:20;;;;;;;65.05;39.72;;;-2.00;99.90;;;;;;5041490;28;20035;-65
2024/01/11 04:28:47;;;;;;;65.57;40.63;;;-2.10;99.90;;;;;;5057625;28;20247;-65
2024/01/11 04:31:16;;;;;;;66.07;39.20;;;-2.00;99.90;;;;;;5040854;28;20040;-64
2024/01/11 04:33:46;;;;;;;66.00;39.15;;;-2.00;99.90;;;;;;5057811;28;20058;-65
2024/01/11 04:36:15;;;;;;;65.20;39.63;;;-1.90;99.90;;;;;;5042433;28;20148;-65
2024/01/11 04:38:40;;;;;;;66.07;40.47;;;-1.90;99.90;;;;;;5057307;28;20517;-64
2024/01/11 04:41:10;;;;;;;65.63;39.70;;;-1.80;99.90;;;;;;5057175;28;20067;-65
2024/01/11 04:43:40;;;;;;;67.03;40.63;;;-1.90;99.90;;;;;;5073810;28;20096;-66
2024/01/11 04:46:19;;;;;;;63.38;38.75;;;-1.70;99.90;;;;;;5040762;28;20070;-66
2024/01/11 04:48:46;;;;;;;63.38;39.78;;;-1.80;99.90;;;;;;5056863;28;20446;-65
2024/01/11 04:51:13;;;;;;;71.25;41.80;;;-1.80;99.90;;;;;;5057757;28;20035;-65
2024/01/11 04:53:40;;;;;;;67.90;41.60;;;-1.80;99.90;;;;;;5041096;28;20119;-65
2024/01/11 04:56:11;;;;;;;70.75;42.15;;;-1.80;99.90;;;;;;5057438;28;20218;-66
2024/01/11 04:58:40;;;;;;;74.88;42.67;;;-1.60;99.90;;;;;;5057875;28;20498;-65
2024/01/11 05:01:06;;;;;;;72.50;42.15;;;-1.80;99.90;;;;;;5074097;28;20486;-66
2024/01/11 05:03:33;;;;;;;73.05;42.95;;;-1.70;99.90;;;;;;5057251;28;20126;-64
2024/01/11 05:05:59;;;;;;;71.50;42.25;;;-1.70;99.90;;;;;;5074050;28;20547;-66
2024/01/11 05:08:26;;;;;;;74.53;44.67;;;-1.60;99.90;;;;;;5057182;28;20544;-65
2024/01/11 05:10:52;;;;;;;73.15;43.35;;;-1.60;99.90;;;;;;5056554;28;20526;-66
2024/01/11 05:13:18;;;;;;;77.45;44.58;;;-1.70;99.90;;;;;;5023561;28;20131;-67
2024/01/11 05:15:45;;;;;;;75.72;43.78;;;-1.70;99.90;;;;;;5073847;28;20105;-66
2024/01/11 05:18:11;;;;;;;73.05;42.38;;;-1.50;99.90;;;;;;5078317;28;20489;-66
2024/01/11 05:20:37;;;;;;;75.55;44.67;;;-1.70;99.90;;;;;;5059012;28;20190;-63
2024/01/11 05:23:03;;;;;;;73.32;43.28;;;-1.50;99.90;;;;;;5041586;28;20043;-64
2024/01/11 05:25:33;;;;;;;74.47;42.38;;;-1.50;99.90;;;;;;5058169;28;20477;-62
2024/01/11 05:28:03;;;;;;;76.80;43.92;;;-1.50;99.90;;;;;;5041641;28;20060;-63
2024/01/11 05:30:29;;;;;;;77.80;45.50;;;-1.50;99.90;;;;;;5058017;28;20039;-66
2024/01/11 05:32:55;;;;;;;77.60;43.38;;;-1.40;99.90;;;;;;5058092;28;20944;-63
2024/01/11 05:35:23;;;;;;;76.45;44.95;;;-1.60;99.90;;;;;;5074352;28;20047;-63
2024/01/11 05:37:50;;;;;;;80.68;46.33;;;-1.40;99.90;;;;;;5041801;28;20208;-64
2024/01/11 05:40:16;;;;;;;76.30;44.83;;;-1.50;99.90;;;;;;5058295;28;20167;-63
2024/01/11 05:42:42;;;;;;;76.28;45.45;;;-1.30;99.90;;;;;;5061139;28;20047;-62
2024/01/11 05:45:08;;;;;;;79.20;45.85;;;-1.50;99.90;;;;;;5056805;28;20047;-63
2024/01/11 05:47:34;;;;;;;76.90;43.97;;;-1.30;99.90;;;;;;5030377;28;20460;-64
2024/01/11 05:50:00;;;;;;;78.18;44.88;;;-1.30;99.90;;;;;;5074330;28;20331;-63
2024/01/11 05:52:26;;;;;;;79.18;44.85;;;-1.40;99.90;;;;;;5040489;28;20036;-63
2024/01/11 05:54:51;;;;;;;73.28;42.78;;;-1.10;99.90;;;;;;5057387;28;20039;-62
2024/01/11 05:57:17;;;;;;;77.28;44.17;;;-1.20;99.90;;;;;;5040933;28;20039;-63
2024/01/11 05:59:45;;;;;;;82.22;47.03;;;-1.10;99.90;;;;;;5056792;28;20046;-64
2024/01/11 06:02:11;;;;;;;78.22;45.67;;;-1.40;99.90;;;;;;5057546;28;20044;-63
2024/01/11 06:04:37;;;;;;;77.53;45.35;;;-1.30;99.90;;;;;;5039940;28;20035;-63
2024/01/11 06:07:03;;;;;;;79.57;45.10;;;-1.10;99.90;;;;;;5043390;28;20042;-62
2024/01/11 06:09:29;;;;;;;80.18;45.53;;;-1.10;99.90;;;;;;5057023;28;20051;-62
2024/01/11 06:11:55;;;;;;;82.80;47.20;;;-1.20;99.90;;;;;;5039965;28;20473;-62
2024/01/11 06:14:21;;;;;;;73.97;43.08;;;-1.30;99.90;;;;;;5073732;28;20035;-62
2024/01/11 06:16:46;;;;;;;78.53;44.72;;;-1.20;99.90;;;;;;5057069;28;20112;-62
2024/01/11 06:19:12;;;;;;;81.57;45.10;;;-1.10;99.90;;;;;;5072725;28;20429;-63
2024/01/11 06:21:38;;;;;;;76.95;44.90;;;-1.10;99.90;;;;;;5039791;28;20224;-63
2024/01/11 06:24:04;;;;;;;75.95;43.75;;;-1.30;99.90;;;;;;5040887;28;20047;-63
2024/01/11 06:26:30;;;;;;;82.70;47.83;;;-1.00;99.90;;;;;;5040926;28;20039;-63
2024/01/11 06:28:56;;;;;;;75.50;42.70;;;-1.00;99.90;;;;;;5044963;28;20039;-63
2024/01/11 06:31:22;;;;;;;80.60;45.10;;;-1.00;99.90;;;;;;5056482;28;20040;-64
2024/01/11 06:33:48;;;;;;;78.25;43.97;;;-1.20;99.90;;;;;;5055093;28;20044;-64
2024/01/11 06:36:14;;;;;;;82.00;46.15;;;-0.90;99.90;;;;;;5037805;28;20031;-64
2024/01/11 06:38:40;;;;;;;80.00;44.53;;;-1.00;99.90;;;;;;5041328;28;20551;-63
2024/01/11 06:41:05;;;;;;;82.20;46.85;;;-0.90;99.90;;;;;;5041777;28;20036;-64
2024/01/11 06:43:31;;;;;;;81.47;44.28;;;-1.00;99.90;;;;;;5057906;28;20047;-64
2024/01/11 06:46:03;;;;;;;71.95;41.20;;;-1.00;99.90;;;;;;5042300;28;20040;-64
2024/01/11 06:48:29;;;;;;;74.50;41.60;;;-0.80;99.90;;;;;;5058012;28;20142;-64
2024/01/11 06:50:55;;;;;;;74.25;41.60;;;-0.80;99.90;;;;;;5041388;28;20131;-64
2024/01/11 06:53:21;;;;;;;73.53;39.78;;;-0.60;99.90;;;;;;5042697;27;20043;-64
2024/01/11 06:55:47;;;;;;;80.55;43.85;;;-0.80;99.90;;;;;;5041937;28;20469;-64
2024/01/11 06:58:13;;;;;;;77.68;42.05;;;-0.60;99.90;;;;;;5041117;28;20046;-64
2024/01/11 07:00:42;;;;;;;68.32;40.20;;;-0.80;99.90;;;;;;5059767;28;20139;-64
2024/01/11 07:03:12;;;;;;;72.40;41.53;;;-0.50;99.90;;;;;;5028715;28;20039;-65
2024/01/11 07:05:37;;;;;;;73.28;41.30;;;-0.50;99.90;;;;;;5060971;28;20507;-65
2024/01/11 07:08:04;;;;;;;75.55;42.22;;;-0.50;99.90;;;;;;5043471;28;20059;-68
2024/01/11 07:10:30;;;;;;;74.35;40.13;;;-0.40;99.90;;;;;;5061083;28;20051;-65
2024/01/11 07:12:56;;;;;;;70.82;40.17;;;-0.50;99.90;;;;;;5044114;28;20335;-65
2024/01/11 07:15:23;;;;;;;72.43;41.28;;;-0.40;99.90;;;;;;5043134;28;20376;-65
2024/01/11 07:17:49;;;;;;;66.05;38.22;;;-0.60;99.90;;;;;;5043115;28;20095;-65
2024/01/11 07:20:16;;;;;;;73.45;40.88;;;-0.40;99.90;;;;;;5045352;28;20047;-65
2024/01/11 07:22:42;;;;;;;67.43;38.63;;;-0.30;99.90;;;;;;5059339;28;20039;-65
2024/01/11 07:25:08;;;;;;;64.95;37.05;;;-0.60;99.90;;;;;;5059046;28;20159;-65
2024/01/11 07:27:35;;;;;;;71.22;39.22;;;-0.30;99.90;;;;;;5075296;28;20066;-65
2024/01/11 07:30:02;;;;;;;59.25;35.08;;;-0.30;99.90;;;;;;5074877;28;20035;-65
2024/01/11 07:32:28;;;;;;;67.85;37.15;;;-0.50;99.90;;;;;;5044690;28;20116;-66
2024/01/11 07:34:54;;;;;;;64.60;37.35;;;-0.30;99.90;;;;;;5027258;28;20039;-66
2024/01/11 07:37:20;;;;;;;65.28;36.65;;;-0.40;99.90;;;;;;5076690;28;20066;-65
2024/01/11 07:39:46;;;;;;;65.00;36.83;;;-0.50;99.90;;;;;;5057902;27;20044;-65
2024/01/11 07:42:14;;;;;;;62.33;35.38;;;-0.10;99.90;;;;;;5026840;28;20036;-66
2024/01/11 07:44:39;;;;;;;64.88;36.20;;;-0.20;99.90;;;;;;5060290;28;20243;-65
2024/01/11 07:47:06;;;;;;;64.78;35.35;;;-0.30;99.90;;;;;;5059637;28;20474;-66
2024/01/11 07:49:32;;;;;;;62.42;35.05;;;-0.10;99.90;;;;;;5042986;28;20039;-65
2024/01/11 07:51:57;;;;;;;58.60;32.60;;;-0.30;99.90;;;;;;5043420;28;20861;-65
2024/01/11 07:54:23;;;;;;;56.60;32.63;;;0.00;99.90;;;;;;5059862;28;20051;-65
2024/01/11 07:56:49;;;;;;;55.78;33.38;;;0.00;99.90;;;;;;5076007;28;20179;-66
2024/01/11 07:59:15;;;;;;;59.58;34.05;;;0.10;99.90;;;;;;5072577;28;20048;-66
2024/01/11 08:01:41;;;;;;;57.88;33.63;;;0.10;99.90;;;;;;5042165;28;20298;-66
2024/01/11 08:04:07;;;;;;;55.47;33.20;;;0.20;99.90;;;;;;5057964;28;20059;-66
2024/01/11 08:06:32;;;;;;;60.63;34.55;;;0.10;99.90;;;;;;5076010;27;20207;-66
2024/01/11 08:08:58;;;;;;;56.13;33.55;;;0.10;99.90;;;;;;5042685;28;20055;-66
2024/01/11 08:11:24;;;;;;;58.33;33.95;;;-0.10;99.90;;;;;;5057515;27;20645;-66
2024/01/11 08:13:50;;;;;;;52.97;31.35;;;0.10;99.90;;;;;;5058781;28;20184;-66
2024/01/11 08:16:17;;;;;;;56.95;32.58;;;0.00;99.90;;;;;;5058586;28;20477;-66
2024/01/11 08:18:43;;;;;;;58.22;33.50;;;0.30;99.90;;;;;;5058551;28;20043;-66
2024/01/11 08:21:10;;;;;;;58.28;34.72;;;0.10;99.90;;;;;;5059521;28;20040;-66
2024/01/11 08:23:43;;;;;;;56.53;33.15;;;0.10;99.90;;;;;;5059160;27;20111;-67
2024/01/11 08:26:11;;;;;;;60.72;35.30;;;0.30;99.90;;;;;;5048178;28;20638;-67
2024/01/11 08:28:36;;;;;;;61.53;35.25;;;0.20;99.90;;;;;;5057211;28;20129;-66
2024/01/11 08:31:04;;;;;;;58.58;34.22;;;0.40;99.90;;;;;;5057623;28;20123;-67
2024/01/11 08:33:30;;;;;;;57.55;33.70;;;0.30;99.90;;;;;;5043278;28;20035;-66
2024/01/11 08:35:56;;;;;;;56.20;34.13;;;0.10;99.90;;;;;;5042081;28;20504;-66
2024/01/11 08:38:22;;;;;;;58.20;34.97;;;0.20;99.90;;;;;;5025216;28;20308;-66
2024/01/11 08:40:48;;;;;;;56.55;33.47;;;0.50;99.90;;;;;;5041705;28;20529;-66
2024/01/11 08:43:14;;;;;;;54.30;32.58;;;0.50;99.90;;;;;;5041701;27;20046;-66
2024/01/11 08:45:40;;;;;;;57.63;33.42;;;0.40;99.90;;;;;;5055742;28;20617;-67
2024/01/11 08:48:06;;;;;;;52.80;32.85;;;0.40;99.90;;;;;;5093677;28;20112;-68
2024/01/11 08:50:32;;;;;;;55.35;33.30;;;0.50;99.90;;;;;;5040135;28;20122;-67
2024/01/11 08:52:58;;;;;;;53.03;31.88;;;0.40;99.90;;;;;;5056830;28;20148;-66
2024/01/11 08:55:24;;;;;;;55.33;32.75;;;0.50;99.90;;;;;;5056010;28;20031;-67
2024/01/11 08:57:50;;;;;;;55.95;33.03;;;0.70;99.90;;;;;;5056623;28;20343;-67
2024/01/11 09:00:19;;;;;;;51.80;32.33;;;0.50;99.90;;;;;;5005940;28;20457;-66
2024/01/11 09:02:45;;;;;;;53.28;32.33;;;0.80;99.90;;;;;;5045735;28;20031;-65
2024/01/11 09:05:13;;;;;;;52.70;31.35;;;0.90;99.90;;;;;;5041165;28;20039;-64
2024/01/11 09:07:39;;;;;;;46.45;29.27;;;0.70;99.90;;;;;;5056280;28;20067;-65
2024/01/11 09:10:08;;;;;;;50.50;30.65;;;0.70;99.90;;;;;;5056304;28;20297;-65
2024/01/11 09:12:35;;;;;;;47.35;31.10;;;1.00;99.90;;;;;;5040884;28;20047;-67
2024/01/11 09:15:00;;;;;;;48.30;30.20;;;0.90;99.90;;;;;;5032855;28;20054;-65
2024/01/11 09:17:26;;;;;;;47.53;29.52;;;1.10;99.90;;;;;;5056707;28;20099;-65
2024/01/11 09:19:52;;;;;;;45.67;28.92;;;1.20;99.90;;;;;;5056928;28;20477;-65
2024/01/11 09:22:18;;;;;;;48.40;30.52;;;1.00;99.90;;;;;;5055243;28;20122;-64
2024/01/11 09:24:43;;;;;;;45.03;28.70;;;1.00;99.90;;;;;;5068947;28;20024;-64
2024/01/11 09:27:09;;;;;;;44.58;29.08;;;1.20;99.90;;;;;;5038749;28;20145;-65
2024/01/11 09:29:35;;;;;;;42.67;28.65;;;1.10;99.90;;;;;;5044379;28;20139;-62
2024/01/11 09:32:01;;;;;;;45.22;28.50;;;1.10;99.90;;;;;;5056160;28;20050;-63
2024/01/11 09:34:26;;;;;;;41.75;28.13;;;1.30;99.90;;;;;;5072487;28;20082;-63
2024/01/11 09:36:52;;;;;;;42.40;27.25;;;1.20;99.90;;;;;;5042718;28;20036;-64
2024/01/11 09:39:18;;;;;;;45.58;29.77;;;1.40;99.90;;;;;;5055483;28;20274;-64
2024/01/11 09:41:58;;;;;;;40.63;26.42;;;1.30;99.90;;;;;;5057302;28;20036;-65
2024/01/11 09:44:25;;;;;;;43.83;29.65;;;1.50;99.90;;;;;;5056193;28;20047;-65
2024/01/11 09:46:53;;;;;;;43.10;27.50;;;1.20;99.90;;;;;;5077460;28;20054;-64
2024/01/11 09:49:20;;;;;;;41.95;28.73;;;1.20;99.90;;;;;;5055996;28;20097;-64
2024/01/11 09:51:47;;;;;;;42.55;28.42;;;1.30;99.90;;;;;;5040866;28;20043;-64
2024/01/11 09:54:14;;;;;;;40.85;27.33;;;1.30;99.90;;;;;;5077645;28;20490;-63
2024/01/11 09:56:42;;;;;;;42.90;28.08;;;1.50;99.90;;;;;;5058442;28;20320;-63
2024/01/11 09:59:09;;;;;;;41.53;27.98;;;1.50;99.90;;;;;;5040329;28;20051;-65
2024/01/11 10:01:35;;;;;;;40.80;27.08;;;1.40;99.90;;;;;;5073798;28;20267;-66
2024/01/11 10:04:03;;;;;;;39.35;27.45;;;1.50;99.90;;;;;;5073990;28;20297;-64
2024/01/11 10:06:33;;;;;;;38.03;25.70;;;1.30;99.90;;;;;;5073077;28;20272;-63
2024/01/11 10:08:59;;;;;;;39.88;27.20;;;1.40;99.90;;;;;;5040586;28;20132;-64
2024/01/11 10:11:24;;;;;;;40.67;26.58;;;1.60;99.90;;;;;;5073649;28;20348;-64
2024/01/11 10:13:57;;;;;;;40.00;27.10;;;1.60;99.90;;;;;;5077006;27;20043;-64
2024/01/11 10:16:24;;;;;;;39.83;27.47;;;1.70;99.90;;;;;;5076791;28;20725;-65
2024/01/11 10:18:53;;;;;;;39.78;26.60;;;1.50;99.90;;;;;;5060580;28;20269;-63
2024/01/11 10:21:19;;;;;;;38.72;26.40;;;1.70;99.90;;;;;;5072203;27;20040;-63
2024/01/11 10:23:45;;;;;;;36.17;25.10;;;1.50;99.90;;;;;;5062413;27;20509;-64
2024/01/11 10:26:10;;;;;;;37.40;25.42;;;1.60;99.90;;;;;;5060994;28;20046;-63
2024/01/11 10:28:37;;;;;;;37.42;25.80;;;1.60;99.90;;;;;;5060916;27;20501;-64
2024/01/11 10:31:07;;;;;;;39.17;26.02;;;1.70;99.90;;;;;;5059421;28;20039;-64
2024/01/11 10:33:35;;;;;;;39.67;24.77;;;1.70;99.90;;;;;;5059410;28;20248;-64
2024/01/11 10:36:01;;;;;;;35.58;23.60;;;1.70;99.90;;;;;;5068352;28;20067;-65
2024/01/11 10:38:35;;;;;;;35.00;24.27;;;1.90;99.90;;;;;;5075862;27;21091;-65
2024/01/11 10:41:05;;;;;;;36.60;25.27;;;1.80;99.90;;;;;;5063451;27;20039;-65
2024/01/11 10:43:32;;;;;;;38.65;23.45;;;1.90;99.90;;;;;;5076188;27;20144;-64
2024/01/11 10:46:04;;;;;;;39.65;25.88;;;1.80;99.90;;;;;;5047964;28;20528;-66
2024/01/11 10:48:34;;;;;;;37.10;23.90;;;2.00;99.90;;;;;;5083053;27;20051;-65
2024/01/11 10:51:02;;;;;;;38.38;24.35;;;2.00;99.90;;;;;;5064351;27;20047;-65
2024/01/11 10:53:47;;;;;;;34.08;23.00;;;2.00;99.90;;;;;;5046565;28;20286;-64
2024/01/11 10:56:15;;;;;;;34.33;22.88;;;1.90;99.90;;;;;;5077725;28;20051;-64
2024/01/11 10:58:42;;;;;;;36.78;24.23;;;2.10;99.90;;;;;;5061387;27;20046;-64
2024/01/11 11:01:12;;;;;;;37.22;24.27;;;1.80;99.90;;;;;;5060188;27;20040;-64
2024/01/11 11:03:39;;;;;;;35.20;24.35;;;2.00;99.90;;;;;;5059119;28;20495;-64
2024/01/11 11:06:07;;;;;;;34.03;22.98;;;2.00;99.90;;;;;;5065845;27;20250;-65
2024/01/11 11:08:33;;;;;;;35.90;24.35;;;2.00;99.90;;;;;;5073456;28;20710;-64
2024/01/11 11:11:07;;;;;;;36.33;22.90;;;2.00;99.90;;;;;;5073299;28;20050;-64
2024/01/11 11:13:34;;;;;;;33.65;22.40;;;2.20;99.90;;;;;;5073444;28;20048;-65
2024/01/11 11:16:03;;;;;;;33.88;22.15;;;2.10;99.90;;;;;;5057098;28;20036;-64
2024/01/11 11:18:29;;;;;;;33.70;23.92;;;2.10;99.90;;;;;;5072891;28;20293;-64
2024/01/11 11:20:55;;;;;;;36.47;23.73;;;2.10;99.90;;;;;;5072989;28;20130;-63
2024/01/11 11:23:21;;;;;;;33.47;22.40;;;2.30;99.90;;;;;;5070949;28;20040;-63
2024/01/11 11:25:48;;;;;;;34.10;21.73;;;2.40;99.90;;;;;;5054488;28;20048;-63
2024/01/11 11:28:18;;;;;;;35.10;23.27;;;2.30;99.90;;;;;;5070864;28;20072;-63
2024/01/11 11:30:47;;;;;;;37.08;23.15;;;2.20;99.90;;;;;;5070849;28;20039;-63
2024/01/11 11:33:28;;;;;;;33.55;22.70;;;2.40;99.90;;;;;;5070206;28;20109;-63
2024/01/11 11:35:57;;;;;;;31.17;20.67;;;2.40;99.90;;;;;;5053938;28;20040;-62
2024/01/11 11:38:32;;;;;;;30.70;21.55;;;2.10;99.90;;;;;;5077891;28;20580;-63
2024/01/11 11:41:00;;;;;;;31.35;22.50;;;2.20;99.90;;;;;;5072809;28;20039;-65
2024/01/11 11:43:27;;;;;;;32.10;21.45;;;2.30;99.90;;;;;;5074872;28;20040;-64
2024/01/11 11:45:54;;;;;;;35.17;23.75;;;2.10;99.90;;;;;;5040300;28;20179;-63
2024/01/11 11:48:29;;;;;;;36.38;23.75;;;2.20;99.90;;;;;;5054584;28;20055;-63
2024/01/11 11:51:11;;;;;;;34.78;24.27;;;2.30;99.90;;;;;;5053538;28;20317;-65
2024/01/11 11:53:38;;;;;;;41.03;24.85;;;2.20;99.90;;;;;;5072942;28;20461;-63
2024/01/11 11:56:05;;;;;;;41.47;26.25;;;2.20;99.90;;;;;;5054155;28;20539;-63
2024/01/11 11:58:32;;;;;;;40.17;24.38;;;2.30;99.90;;;;;;5054154;28;20047;-64
2024/01/11 12:00:59;;;;;;;41.17;26.02;;;2.00;99.90;;;;;;5071306;28;20039;-63
2024/01/11 12:03:38;;;;;;;47.55;27.55;;;2.00;99.90;;;;;;5054878;28;20032;-63
2024/01/11 12:06:06;;;;;;;42.25;25.40;;;2.20;99.90;;;;;;5072961;28;20509;-63
2024/01/11 12:08:32;;;;;;;41.10;25.92;;;2.20;99.90;;;;;;5054984;28;20391;-63
2024/01/11 12:10:58;;;;;;;42.55;26.80;;;1.90;99.90;;;;;;5088600;28;20059;-63
2024/01/11 12:13:27;;;;;;;43.40;25.63;;;2.10;99.90;;;;;;5070357;28;20152;-63
2024/01/11 12:15:53;;;;;;;44.50;26.85;;;2.10;99.90;;;;;;5053413;28;20531;-63
2024/01/11 12:18:19;;;;;;;46.63;25.88;;;2.10;99.90;;;;;;5053820;28;20070;-64
2024/01/11 12:20:45;;;;;;;38.92;23.30;;;2.10;99.90;;;;;;5053193;28;20199;-63
2024/01/11 12:23:13;;;;;;;45.30;26.65;;;2.10;99.90;;;;;;5053168;28;20585;-65
2024/01/11 12:25:40;;;;;;;41.88;26.25;;;2.00;99.90;;;;;;5069361;28;20052;-62
2024/01/11 12:28:07;;;;;;;44.33;25.42;;;2.10;99.90;;;;;;5053027;28;20043;-63